Time;durP1;ratioP1;P1;durP2;ratioP2;P2;SDS_P1;SDS_P2;PMS_P1;PMS_P2;Temp;Humidity;BMP_temperature;BMP_pressure;BME280_temperature;BME280_humidity;BME280_pressure;Samples;Min_cycle;Max_cycle;Signal;HPM_P1;HPM_P2
2023/01/12 00:02:03;;;;;;;18.52;3.53;;;5.10;99.90;;;3.92;100.00;97696.16;5070022;28;20648;-74
2023/01/12 00:04:32;;;;;;;24.10;3.90;;;5.10;99.90;;;3.94;100.00;97698.56;5069931;28;20457;-73
2023/01/12 00:07:00;;;;;;;19.17;3.73;;;5.10;99.90;;;3.95;100.00;97694.94;5069687;28;20507;-73
2023/01/12 00:09:27;;;;;;;22.33;3.73;;;5.10;99.90;;;3.89;100.00;97704.44;5051763;28;20414;-74
2023/01/12 00:11:53;;;;;;;21.87;4.00;;;5.00;99.90;;;3.92;100.00;97704.00;5069681;28;20498;-74
2023/01/12 00:14:19;;;;;;;20.63;3.97;;;5.00;99.90;;;3.86;100.00;97710.03;5069782;28;20407;-73
2023/01/12 00:16:45;;;;;;;24.63;3.90;;;5.00;99.90;;;4.00;100.00;97705.63;5069557;28;20737;-73
2023/01/12 00:19:14;;;;;;;10.23;3.40;;;5.10;99.90;;;3.94;100.00;97711.66;5069233;28;20402;-74
2023/01/12 00:22:29;;;;;;;20.77;3.40;;;5.10;99.90;;;3.96;100.00;97707.03;5069505;28;20443;-73
2023/01/12 00:24:34;;;;;;;21.70;3.73;;;5.10;99.90;;;3.96;100.00;97709.66;5058592;28;20972;-74
2023/01/12 00:27:03;;;;;;;19.75;3.65;;;5.10;99.90;;;4.00;100.00;97708.25;5069593;28;20933;-73
2023/01/12 00:29:29;;;;;;;15.43;3.47;;;5.10;99.90;;;4.02;100.00;97699.19;5069632;28;20506;-74
2023/01/12 00:31:57;;;;;;;22.25;3.70;;;5.10;99.90;;;4.14;100.00;97712.47;5069672;28;20494;-73
2023/01/12 00:34:23;;;;;;;23.70;3.95;;;5.20;99.90;;;4.14;100.00;97705.41;5069750;28;20892;-73
2023/01/12 00:36:49;;;;;;;15.27;3.25;;;5.20;99.90;;;4.16;100.00;97705.22;5071794;28;20396;-73
2023/01/12 00:39:16;;;;;;;18.40;3.20;;;5.30;99.90;;;4.20;100.00;97701.19;5055185;28;20399;-73
2023/01/12 00:47:15;;;;;;;13.43;3.38;;;5.40;99.90;;;4.57;100.00;97705.78;5073089;28;20400;-74
2023/01/12 00:49:41;;;;;;;13.13;3.67;;;5.50;99.90;;;4.42;100.00;97705.22;5073013;28;20434;-74
2023/01/12 00:52:10;;;;;;;22.48;4.93;;;5.50;99.90;;;4.51;100.00;97698.72;5072832;28;20485;-73
2023/01/12 00:54:36;;;;;;;11.38;3.70;;;5.60;99.90;;;4.44;100.00;97689.25;5073038;28;20922;-74
2023/01/12 00:57:05;;;;;;;19.33;3.50;;;5.60;99.90;;;4.50;100.00;97688.47;5072727;28;20494;-74
2023/01/12 00:59:30;;;;;;;16.98;3.60;;;5.60;99.90;;;4.54;100.00;97676.53;5072811;28;20440;-74
2023/01/12 01:01:57;;;;;;;14.60;3.28;;;5.60;99.90;;;4.56;100.00;97685.00;5072796;28;20406;-74
2023/01/12 01:04:23;;;;;;;19.73;3.78;;;5.60;99.90;;;4.54;100.00;97681.78;5072742;28;20479;-73
2023/01/12 01:06:49;;;;;;;19.17;3.40;;;5.60;99.90;;;4.51;100.00;97680.38;5072728;28;20399;-74
2023/01/12 01:09:15;;;;;;;16.90;3.47;;;5.60;99.90;;;4.56;100.00;97690.25;5072747;28;20407;-73
2023/01/12 01:11:41;;;;;;;14.80;3.40;;;5.60;99.90;;;4.61;100.00;97683.38;5072458;28;20465;-73
2023/01/12 01:14:09;;;;;;;16.53;3.47;;;5.70;99.90;;;4.60;100.00;97684.38;5054590;28;20984;-73
2023/01/12 01:16:35;;;;;;;18.90;3.58;;;5.70;99.90;;;4.86;100.00;97677.47;5072577;28;20448;-73
2023/01/12 01:19:04;;;;;;;20.40;4.17;;;5.80;99.90;;;4.78;100.00;97675.06;5072482;28;20422;-73
2023/01/12 01:21:31;;;;;;;21.40;3.42;;;5.80;99.90;;;4.66;100.00;97673.06;5072508;28;20433;-73
2023/01/12 01:23:57;;;;;;;16.02;3.55;;;5.80;99.90;;;4.69;100.00;97674.50;5072374;28;20407;-73
2023/01/12 01:26:23;;;;;;;10.07;3.03;;;5.80;99.90;;;4.60;100.00;97680.97;5072574;28;20435;-73
2023/01/12 01:28:50;;;;;;;15.00;3.85;;;5.70;99.90;;;4.67;100.00;97685.19;5072251;28;20396;-73
2023/01/12 01:31:22;;;;;;;13.73;3.45;;;5.70;99.90;;;4.64;100.00;97695.28;5072324;28;20553;-73
2023/01/12 01:33:49;;;;;;;14.30;3.30;;;5.70;99.90;;;4.59;100.00;97695.88;5071728;28;20461;-73
2023/01/12 01:36:16;;;;;;;19.33;3.92;;;5.70;99.90;;;4.65;100.00;97702.16;5072229;28;20396;-74
2023/01/12 01:38:44;;;;;;;14.93;3.67;;;5.70;99.90;;;4.66;100.00;97693.28;5072078;28;20456;-74
2023/01/12 01:41:19;;;;;;;10.48;2.83;;;5.80;99.90;;;4.61;100.00;97698.31;5072004;28;20404;-73
2023/01/12 01:43:55;;;;;;;13.13;3.20;;;5.70;99.90;;;4.63;100.00;97696.28;5071693;28;20472;-73
2023/01/12 01:46:42;;;;;;;14.90;3.08;;;5.70;99.90;;;4.66;100.00;97693.28;5072099;28;20396;-73
2023/01/12 01:49:27;;;;;;;15.30;3.03;;;5.70;99.90;;;4.69;100.00;97695.47;5070862;28;20408;-74
2023/01/12 01:51:59;;;;;;;21.55;3.63;;;5.80;99.90;;;4.68;100.00;97694.66;5071826;28;20946;-74
2023/01/12 01:54:29;;;;;;;19.10;3.22;;;5.80;99.90;;;4.74;100.00;97710.56;5071885;28;20791;-73
2023/01/12 01:56:56;;;;;;;19.98;4.35;;;5.80;99.90;;;4.88;100.00;97702.47;5071946;28;20400;-74
2023/01/12 01:59:29;;;;;;;10.73;2.85;;;5.90;99.90;;;4.79;100.00;97697.66;5071609;28;20431;-73
2023/01/12 02:01:57;;;;;;;18.27;3.40;;;5.90;99.90;;;4.94;100.00;97701.66;5071619;28;20901;-74
2023/01/12 02:04:24;;;;;;;11.30;3.15;;;6.00;99.90;;;5.02;100.00;97700.63;5071730;28;21010;-73
2023/01/12 02:06:51;;;;;;;14.18;3.00;;;6.00;99.90;;;4.86;100.00;97694.00;5071711;28;20399;-73
2023/01/12 02:09:24;;;;;;;17.50;3.10;;;6.00;99.90;;;4.79;100.00;97698.47;5071543;28;20387;-74
2023/01/12 02:17:44;;;;;;;18.63;3.22;;;5.80;99.90;;;4.63;100.00;97689.22;5071358;28;20411;-73
2023/01/12 02:20:54;;;;;;;20.75;3.78;;;5.70;99.90;;;4.62;100.00;97674.50;5071223;28;20883;-73
2023/01/12 02:24:30;;;;;;;20.48;3.35;;;5.70;99.90;;;4.72;100.00;97666.22;5071159;28;20813;-73
2023/01/12 02:27:41;;;;;;;16.20;3.40;;;5.70;99.90;;;4.95;100.00;97665.75;5010913;28;20411;-73
2023/01/12 02:30:46;;;;;;;14.88;2.70;;;5.90;99.90;;;4.84;100.00;97666.38;5071180;28;20460;-73
2023/01/12 02:33:34;;;;;;;20.83;3.10;;;5.90;99.90;;;4.80;100.00;97658.13;5070922;28;20823;-73
2023/01/12 02:36:10;;;;;;;15.70;3.00;;;5.80;99.90;;;4.89;100.00;97651.63;5071122;28;20451;-74
2023/01/12 02:38:44;;;;;;;14.98;3.08;;;5.90;99.90;;;4.96;100.00;97649.75;5070912;28;20805;-73
2023/01/12 02:42:39;;;;;;;15.35;3.50;;;5.90;99.90;;;5.01;100.00;97647.34;5071139;28;20441;-73
2023/01/12 02:44:12;;;;;;;17.60;3.53;;;6.00;99.90;;;4.79;100.00;97638.16;5070567;28;20963;-73
2023/01/12 02:46:40;;;;;;;15.63;2.93;;;5.90;99.90;;;4.77;100.00;97628.88;5070902;28;20481;-73
2023/01/12 02:49:12;;;;;;;20.40;4.03;;;5.80;99.90;;;4.72;100.00;97637.38;5052624;28;20452;-73
2023/01/12 02:51:46;;;;;;;16.38;3.17;;;5.80;99.90;;;4.62;100.00;97626.50;5070730;28;20757;-73
2023/01/12 02:54:17;;;;;;;17.30;3.58;;;5.70;99.90;;;4.57;100.00;97624.53;5070713;28;20438;-73
2023/01/12 02:56:46;;;;;;;18.30;3.13;;;5.70;99.90;;;4.56;100.00;97616.84;5070590;28;20613;-73
2023/01/12 02:59:19;;;;;;;20.00;3.33;;;5.70;99.90;;;4.50;100.00;97612.44;5070259;28;20498;-73
2023/01/12 03:01:47;;;;;;;15.55;3.08;;;5.60;99.90;;;4.47;100.00;97620.72;5070597;28;20713;-73
2023/01/12 03:04:16;;;;;;;19.30;3.42;;;5.60;99.90;;;4.44;100.00;97611.44;5070481;28;20436;-73
2023/01/12 03:07:05;;;;;;;19.60;3.30;;;5.60;99.90;;;4.47;100.00;97603.19;5070673;28;20407;-72
2023/01/12 03:09:38;;;;;;;17.08;3.55;;;5.60;99.90;;;4.50;100.00;97596.72;5070260;28;20407;-73
2023/01/12 03:12:11;;;;;;;18.80;3.28;;;5.60;99.90;;;4.50;100.00;97602.78;5070422;28;20416;-73
2023/01/12 03:14:41;;;;;;;16.60;3.67;;;5.60;99.90;;;4.47;100.00;97624.16;5070554;28;20396;-73
2023/01/12 03:17:15;;;;;;;24.30;3.93;;;5.60;99.90;;;4.46;100.00;97621.72;5052468;28;20439;-73
2023/01/12 03:19:44;;;;;;;17.15;3.40;;;5.60;99.90;;;4.51;100.00;97621.94;5070323;28;20396;-73
2023/01/12 03:22:14;;;;;;;14.50;2.88;;;5.60;99.90;;;4.51;100.00;97616.69;5070331;28;20418;-72
2023/01/12 03:24:46;;;;;;;17.33;3.40;;;5.60;99.90;;;4.42;100.00;97616.09;5070275;28;20415;-73
2023/01/12 03:27:17;;;;;;;19.95;3.83;;;5.60;99.90;;;4.31;100.00;97608.84;5070296;28;20518;-73
2023/01/12 03:29:49;;;;;;;18.33;3.75;;;5.40;99.90;;;4.43;100.00;97619.53;5052201;28;20876;-73
2023/01/12 03:32:15;;;;;;;23.70;4.20;;;5.50;99.90;;;4.40;100.00;97604.19;5070101;28;20971;-73
2023/01/12 03:34:42;;;;;;;20.83;3.95;;;5.50;99.90;;;4.39;100.00;97600.78;5070126;28;20404;-73
2023/01/12 03:37:16;;;;;;;20.77;3.15;;;5.50;99.90;;;4.38;100.00;97604.41;5070196;28;20418;-72
2023/01/12 03:39:51;;;;;;;13.73;3.10;;;5.50;99.90;;;4.36;100.00;97609.03;5070052;28;20442;-73
2023/01/12 03:42:27;;;;;;;15.60;2.92;;;5.50;99.90;;;4.31;100.00;97602.81;5052031;28;20525;-73
2023/01/12 03:45:04;;;;;;;20.15;3.80;;;5.40;99.90;;;4.37;100.00;97608.03;5070051;28;20404;-73
2023/01/12 03:47:32;;;;;;;24.90;3.45;;;5.40;99.90;;;4.41;100.00;97613.69;5069841;28;20387;-73
2023/01/12 03:50:05;;;;;;;24.02;4.15;;;5.50;99.90;;;4.33;100.00;97606.03;5070076;28;20448;-72
2023/01/12 03:52:35;;;;;;;13.73;3.08;;;5.50;99.90;;;4.37;100.00;97613.28;5069919;28;20939;-73
2023/01/12 03:55:04;;;;;;;16.85;3.00;;;5.50;99.90;;;4.37;100.00;97608.03;5069978;28;20388;-72
2023/01/12 03:57:31;;;;;;;17.65;3.15;;;5.50;99.90;;;4.47;100.00;97612.84;5069899;28;20753;-73
2023/01/12 03:59:59;;;;;;;21.85;4.05;;;5.60;99.90;;;4.55;100.00;97620.50;5052074;28;20434;-73
2023/01/12 04:02:25;;;;;;;20.73;3.83;;;5.60;99.90;;;4.66;100.00;97610.16;5069756;28;20442;-73
2023/01/12 04:04:51;;;;;;;27.38;4.32;;;5.70;99.90;;;4.60;100.00;97605.75;5069859;28;20404;-73
2023/01/12 04:07:18;;;;;;;18.00;2.73;;;5.70;99.90;;;4.66;100.00;97610.16;5069997;28;20396;-73
2023/01/12 04:09:44;;;;;;;15.55;3.65;;;5.80;99.90;;;4.72;100.00;97608.53;5069646;28;20407;-72
2023/01/12 04:12:10;;;;;;;20.90;3.30;;;5.80;99.90;;;4.84;100.00;97606.03;5072739;28;20422;-72
2023/01/12 04:14:37;;;;;;;15.65;3.03;;;5.80;99.90;;;4.74;100.00;97606.50;5073834;28;20399;-73
2023/01/12 04:17:02;;;;;;;19.88;3.20;;;5.80;99.90;;;4.80;100.00;97607.50;5073784;28;20408;-72
2023/01/12 04:19:28;;;;;;;22.63;3.20;;;5.80;99.90;;;4.93;100.00;97596.94;5073675;28;20899;-72
2023/01/12 04:24:40;;;;;;;14.05;3.00;;;6.00;99.90;;;4.94;100.00;97588.06;5073686;28;20899;-73
2023/01/12 04:27:06;;;;;;;16.10;3.17;;;6.00;99.90;;;4.92;100.00;97587.44;5073578;28;20399;-73
2023/01/12 04:29:32;;;;;;;15.95;2.88;;;6.00;99.90;;;4.91;100.00;97584.03;5073453;28;20407;-73
2023/01/12 04:31:58;;;;;;;20.17;3.37;;;6.00;99.90;;;5.01;100.00;97589.63;5073270;28;20509;-73
2023/01/12 04:34:24;;;;;;;24.35;3.35;;;6.10;99.90;;;4.92;100.00;97592.69;5073343;28;20435;-74
2023/01/12 04:36:50;;;;;;;17.10;3.10;;;6.00;99.90;;;5.06;100.00;97578.50;5073358;28;20456;-73
2023/01/12 04:39:15;;;;;;;19.93;3.90;;;6.10;99.90;;;5.16;100.00;97570.16;5073294;28;21009;-73
2023/01/12 04:41:43;;;;;;;20.23;3.67;;;6.10;99.90;;;5.09;100.00;97558.91;5073169;28;20427;-73
2023/01/12 04:44:09;;;;;;;16.88;3.00;;;6.10;99.90;;;5.04;100.00;97562.94;5055268;28;20775;-73
2023/01/12 04:46:35;;;;;;;15.68;3.35;;;6.10;99.90;;;5.00;100.00;97561.78;5073159;28;20399;-73
2023/01/12 04:49:01;;;;;;;17.45;3.03;;;6.10;99.90;;;5.02;100.00;97556.34;5073038;28;20434;-73
2023/01/12 04:51:27;;;;;;;18.30;3.50;;;6.10;99.90;;;5.06;100.00;97550.44;5073025;28;20446;-72
2023/01/12 04:53:52;;;;;;;20.27;3.72;;;6.10;99.90;;;5.02;100.00;97543.22;5070861;28;20498;-73
2023/01/12 04:56:19;;;;;;;14.93;3.40;;;6.10;99.90;;;5.30;100.00;97545.44;5076684;28;20955;-73
2023/01/12 04:58:46;;;;;;;19.48;3.60;;;6.30;99.90;;;5.14;100.00;97543.31;5066893;28;20408;-73
2023/01/12 05:01:16;;;;;;;16.88;3.38;;;6.20;99.90;;;5.13;100.00;97544.34;5065368;28;20408;-74
2023/01/12 05:03:43;;;;;;;15.88;3.65;;;6.20;99.90;;;5.12;100.00;97534.84;5071903;28;20403;-73
2023/01/12 05:06:09;;;;;;;19.70;3.75;;;6.20;99.90;;;5.15;100.00;97529.19;5069113;28;20402;-73
2023/01/12 05:11:23;;;;;;;19.85;2.88;;;6.20;99.90;;;5.05;100.00;97540.94;5061106;28;20436;-73
2023/01/12 05:13:50;;;;;;;21.15;4.00;;;6.10;99.90;;;5.33;100.00;97539.78;5052212;28;20403;-73
2023/01/12 05:16:17;;;;;;;21.10;3.22;;;6.20;99.90;;;5.13;100.00;97544.34;5063868;28;20868;-73
2023/01/12 05:18:44;;;;;;;19.92;3.35;;;6.20;99.90;;;5.27;100.00;97545.84;5065489;28;20419;-73
2023/01/12 05:21:11;;;;;;;21.15;3.55;;;6.20;99.90;;;5.31;100.00;97534.72;5069283;28;20415;-73
2023/01/12 05:23:37;;;;;;;19.02;3.15;;;6.40;99.90;;;5.27;100.00;97541.41;5068825;28;20432;-73
2023/01/12 05:26:05;;;;;;;17.05;3.08;;;6.30;99.90;;;5.24;100.00;97543.66;5067745;28;21076;-73
2023/01/12 05:28:31;;;;;;;21.30;3.17;;;6.30;99.90;;;5.28;100.00;97537.75;5063917;28;20400;-72
2023/01/12 05:31:05;;;;;;;14.77;3.00;;;6.30;99.90;;;5.27;100.00;97530.91;5061467;28;20420;-73
2023/01/12 05:33:32;;;;;;;22.80;4.25;;;6.30;99.90;;;5.43;100.00;97525.13;5051648;28;20444;-73
2023/01/12 05:35:58;;;;;;;15.65;2.88;;;6.40;99.90;;;5.47;100.00;97528.16;5053032;28;20421;-73
2023/01/12 05:38:29;;;;;;;21.40;3.63;;;6.50;99.90;;;5.39;100.00;97523.16;5059857;28;20419;-76
2023/01/12 05:40:58;;;;;;;12.75;3.38;;;6.40;99.90;;;5.56;100.00;97523.44;5068177;28;20435;-73
2023/01/12 05:46:10;;;;;;;17.73;3.35;;;6.60;99.90;;;5.57;100.00;97532.88;5071555;28;20395;-74
2023/01/12 05:48:36;;;;;;;19.40;3.33;;;6.60;99.90;;;5.54;100.00;97526.25;5068966;28;20410;-75
2023/01/12 05:51:04;;;;;;;19.25;3.10;;;6.60;99.90;;;5.55;100.00;97525.25;5071695;28;20857;-77
2023/01/12 05:53:30;;;;;;;20.17;3.60;;;6.60;99.90;;;5.55;100.00;97532.31;5071898;28;20439;-76
2023/01/12 05:55:56;;;;;;;17.60;3.05;;;6.60;99.90;;;5.57;100.00;97527.63;5072193;28;20435;-76
2023/01/12 05:58:22;;;;;;;25.27;4.00;;;6.60;99.90;;;5.47;100.00;97525.50;5071903;28;20486;-76
2023/01/12 06:00:48;;;;;;;20.83;3.40;;;6.50;99.90;;;5.45;100.00;97525.72;5072017;28;20875;-76
2023/01/12 06:03:16;;;;;;;15.00;2.93;;;6.50;99.90;;;5.45;100.00;97530.16;5071887;28;20396;-76
2023/01/12 06:05:42;;;;;;;25.38;3.88;;;6.50;99.90;;;5.39;100.00;97515.28;5071678;28;20403;-76
2023/01/12 06:08:08;;;;;;;16.48;3.70;;;6.50;99.90;;;5.47;100.00;97520.28;5070528;28;20400;-76
2023/01/12 06:10:35;;;;;;;18.30;3.30;;;6.50;99.90;;;5.39;100.00;97520.53;5070492;28;20400;-76
2023/01/12 06:15:46;;;;;;;12.25;2.70;;;6.50;99.90;;;5.39;100.00;97510.03;5071619;28;20398;-76
2023/01/12 06:18:11;;;;;;;22.20;3.37;;;6.50;99.90;;;5.36;100.00;97502.56;5071443;28;20429;-76
2023/01/12 06:20:39;;;;;;;21.25;3.30;;;6.40;99.90;;;5.35;100.00;97498.34;5071413;28;20885;-76
2023/01/12 06:23:05;;;;;;;16.10;3.30;;;6.40;99.90;;;5.32;100.00;97488.28;5071299;28;20499;-76
2023/01/12 06:25:31;;;;;;;15.15;3.08;;;6.40;99.90;;;5.46;100.00;97484.53;5071361;28;20490;-76
2023/01/12 06:27:57;;;;;;;20.33;3.80;;;6.50;99.90;;;5.32;100.00;97483.84;5071274;28;20896;-76
2023/01/12 06:30:23;;;;;;;22.23;3.30;;;6.40;99.90;;;5.43;100.00;97480.50;5071224;28;20391;-75
2023/01/12 06:32:49;;;;;;;19.75;3.55;;;6.40;99.90;;;5.51;100.00;97483.88;5071212;28;20415;-75
2023/01/12 06:35:16;;;;;;;11.20;2.70;;;6.50;99.90;;;5.44;100.00;97483.94;5070784;28;20395;-74
2023/01/12 06:37:43;;;;;;;11.80;2.67;;;6.50;99.90;;;5.34;100.00;97484.41;5069756;28;20893;-74
2023/01/12 06:40:11;;;;;;;13.90;3.10;;;6.40;99.90;;;5.44;100.00;97474.25;5071108;28;20408;-75
2023/01/12 06:42:40;;;;;;;19.60;3.58;;;6.50;99.90;;;5.43;100.00;97474.44;5070708;28;20460;-74
2023/01/12 06:45:09;;;;;;;20.23;2.97;;;6.50;99.90;;;5.50;100.00;97477.00;5070997;28;20403;-74
2023/01/12 06:47:43;;;;;;;18.63;3.13;;;6.50;99.90;;;5.44;100.00;97473.44;5071036;28;20396;-75
2023/01/12 06:50:10;;;;;;;16.20;3.33;;;6.50;99.90;;;5.41;100.00;97485.16;5070971;28;20507;-75
2023/01/12 06:52:36;;;;;;;14.45;2.85;;;6.50;99.90;;;5.34;100.00;97491.47;5070781;28;20416;-75
2023/01/12 06:55:04;;;;;;;15.20;3.63;;;6.40;99.90;;;5.41;100.00;97498.28;5071096;28;20396;-73
2023/01/12 06:57:30;;;;;;;13.02;3.03;;;6.40;99.90;;;5.49;100.00;97496.44;5071654;28;20404;-74
2023/01/12 06:59:56;;;;;;;22.58;4.53;;;6.50;99.90;;;5.52;100.00;97483.66;5070900;28;20892;-74
2023/01/12 07:02:22;;;;;;;16.67;3.13;;;6.60;99.90;;;5.59;100.00;97486.22;5065618;28;20434;-76
2023/01/12 07:04:47;;;;;;;13.50;2.60;;;6.60;99.90;;;5.55;100.00;97477.19;5065865;28;20475;-76
2023/01/12 07:07:14;;;;;;;14.55;2.90;;;6.60;99.90;;;5.65;100.00;97475.66;5067512;28;20750;-76
2023/01/12 07:09:40;;;;;;;14.55;2.92;;;6.70;99.90;;;5.63;100.00;97474.28;5065449;28;20423;-76
2023/01/12 07:12:07;;;;;;;16.80;3.53;;;6.70;99.90;;;5.68;100.00;97477.84;5063056;28;20421;-76
2023/01/12 07:14:33;;;;;;;9.82;3.00;;;6.70;99.90;;;5.83;100.00;97453.84;5068891;28;20408;-76
2023/01/12 07:16:59;;;;;;;12.80;3.08;;;6.80;99.90;;;5.84;100.00;97453.66;5065729;28;20431;-76
2023/01/12 07:19:25;;;;;;;14.03;3.10;;;6.90;99.90;;;5.91;100.00;97468.56;5061195;28;20502;-75
2023/01/12 07:21:51;;;;;;;16.98;3.03;;;6.90;99.90;;;5.88;100.00;97472.41;5063370;28;20507;-76
2023/01/12 07:24:17;;;;;;;10.98;2.70;;;6.90;99.90;;;5.86;100.00;97469.19;5065529;28;20411;-76
2023/01/12 07:26:43;;;;;;;12.38;2.80;;;6.90;99.90;;;5.86;100.00;97469.19;5065421;28;20408;-76
2023/01/12 07:29:10;;;;;;;14.57;2.78;;;6.90;99.90;;;5.77;100.00;97468.69;5057979;28;20412;-76
2023/01/12 07:31:37;;;;;;;13.18;2.88;;;6.80;99.90;;;5.92;100.00;97468.34;5066649;28;20411;-75
2023/01/12 07:34:03;;;;;;;12.85;2.58;;;6.90;99.90;;;5.86;100.00;97471.81;5061903;28;20482;-76
2023/01/12 07:36:29;;;;;;;13.98;3.30;;;6.90;99.90;;;5.86;100.00;97474.44;5070558;28;20391;-75
2023/01/12 07:38:55;;;;;;;13.00;3.08;;;6.90;99.90;;;5.96;100.00;97466.88;5070538;28;20454;-75
2023/01/12 07:44:05;;;;;;;13.55;2.70;;;7.00;99.90;;;6.11;100.00;97482.25;5061129;28;20997;-76
2023/01/12 07:46:33;;;;;;;10.73;2.83;;;7.00;99.90;;;6.02;100.00;97483.56;5069727;28;20403;-75
2023/01/12 07:48:59;;;;;;;15.05;3.35;;;7.10;99.90;;;5.98;100.00;97482.41;5055747;28;20769;-76
2023/01/12 07:51:25;;;;;;;17.98;2.78;;;7.00;99.90;;;5.98;100.00;97485.03;5056984;28;20423;-76
2023/01/12 07:53:51;;;;;;;13.57;2.92;;;7.00;99.90;;;5.98;100.00;97487.69;5074328;28;20396;-76
2023/01/12 07:56:18;;;;;;;16.65;2.75;;;7.00;99.90;;;6.17;100.00;97476.13;5069927;28;20413;-76
2023/01/12 07:58:46;;;;;;;14.25;3.20;;;7.10;99.90;;;6.09;100.00;97474.59;5061259;28;20462;-74
2023/01/12 08:01:12;;;;;;;9.02;2.50;;;7.10;99.90;;;6.33;100.00;97472.09;5063084;28;20398;-74
2023/01/12 08:03:39;;;;;;;12.88;3.35;;;7.30;99.90;;;6.15;100.00;97465.03;5069806;28;20439;-73
2023/01/12 08:06:07;;;;;;;14.57;3.15;;;7.20;99.90;;;6.08;100.00;97462.50;5074080;28;20408;-74
2023/01/12 08:08:33;;;;;;;13.07;2.83;;;7.20;99.90;;;6.07;100.00;97478.47;5073948;28;20423;-73
2023/01/12 08:11:00;;;;;;;14.75;2.83;;;7.10;99.90;;;6.19;100.00;97461.75;5073801;28;20516;-74
2023/01/12 08:13:26;;;;;;;11.50;2.40;;;7.20;99.90;;;6.12;100.00;97466.28;5067730;28;20413;-74
2023/01/12 08:15:53;;;;;;;18.45;2.92;;;7.10;99.90;;;6.05;100.00;97468.19;5069388;28;20403;-74
2023/01/12 08:18:26;;;;;;;8.75;2.22;;;7.10;99.90;;;6.02;100.00;97473.88;5071079;28;20415;-74
2023/01/12 08:20:56;;;;;;;11.45;3.20;;;7.10;99.90;;;6.06;100.00;97463.72;5066366;28;20819;-73
2023/01/12 08:23:27;;;;;;;8.80;2.72;;;7.10;99.90;;;6.34;100.00;97463.19;5072771;28;20402;-75
2023/01/12 08:25:58;;;;;;;15.68;2.80;;;7.20;99.90;;;6.48;100.00;97472.50;5074173;28;20876;-74
2023/01/12 08:28:31;;;;;;;13.07;2.90;;;7.30;99.90;;;6.33;100.00;97475.53;5073589;28;20388;-74
2023/01/12 08:30:57;;;;;;;12.60;2.65;;;7.40;99.90;;;6.38;100.00;97469.63;5073530;28;20418;-74
2023/01/12 08:33:24;;;;;;;12.40;2.88;;;7.30;99.90;;;6.49;100.00;97471.47;5072195;28;20407;-73
2023/01/12 08:35:50;;;;;;;12.07;2.50;;;7.50;99.90;;;6.33;100.00;97493.94;5073564;28;20410;-72
2023/01/12 08:38:18;;;;;;;9.35;2.20;;;7.40;99.90;;;6.39;100.00;97477.25;5068115;28;20494;-74
2023/01/12 08:46:14;;;;;;;11.30;3.17;;;7.40;99.90;;;6.30;100.00;97473.34;5053574;28;20397;-76
2023/01/12 08:48:40;;;;;;;9.82;2.67;;;7.30;99.90;;;6.28;100.00;97474.59;5053032;28;20424;-76
2023/01/12 08:51:07;;;;;;;10.60;2.38;;;7.30;99.90;;;6.22;100.00;97486.78;5053200;28;20766;-76
2023/01/12 08:53:36;;;;;;;8.70;2.30;;;7.30;99.90;;;6.30;100.00;97483.88;5072208;28;20408;-74
2023/01/12 08:56:03;;;;;;;14.43;3.07;;;7.30;99.90;;;6.27;100.00;97470.34;5073076;28;20920;-74
2023/01/12 08:58:30;;;;;;;15.35;3.20;;;7.30;99.90;;;6.44;100.00;97473.97;5071155;28;20873;-73
2023/01/12 09:00:56;;;;;;;9.53;2.40;;;7.40;99.90;;;6.37;100.00;97470.63;5069708;28;20494;-74
2023/01/12 09:03:21;;;;;;;13.13;3.00;;;7.40;99.90;;;6.41;100.00;97484.94;5062485;28;20482;-74
2023/01/12 09:05:47;;;;;;;12.57;2.25;;;7.40;99.90;;;6.36;100.00;97479.53;5067394;28;20404;-75
2023/01/12 09:08:13;;;;;;;10.23;3.30;;;7.40;99.90;;;6.49;100.00;97484.63;5060351;28;20882;-75
2023/01/12 09:10:41;;;;;;;8.50;2.25;;;7.50;99.90;;;6.47;100.00;97484.03;5053131;28;20918;-75
2023/01/12 09:13:07;;;;;;;8.67;2.27;;;7.50;99.90;;;6.44;100.00;97482.69;5066102;28;20425;-76
2023/01/12 09:15:33;;;;;;;13.85;3.45;;;7.50;99.90;;;6.46;100.00;97485.91;5072766;28;20403;-75
2023/01/12 09:17:59;;;;;;;14.68;2.88;;;7.50;99.90;;;6.41;100.00;97485.75;5054142;28;21088;-75
2023/01/12 09:20:25;;;;;;;11.85;2.72;;;7.50;99.90;;;6.42;100.00;97489.97;5052684;28;20400;-75
2023/01/12 09:22:51;;;;;;;13.50;2.88;;;7.50;99.90;;;6.38;100.00;97495.91;5052604;28;20493;-74
2023/01/12 09:25:16;;;;;;;12.57;2.40;;;7.40;99.90;;;6.43;100.00;97494.22;5052620;28;20398;-74
2023/01/12 09:27:44;;;;;;;13.90;2.60;;;7.40;99.90;;;6.43;100.00;97503.91;5068024;28;20401;-73
2023/01/12 09:30:11;;;;;;;8.95;2.22;;;7.50;99.90;;;6.56;100.00;97504.56;5067934;28;20402;-74
2023/01/12 09:32:37;;;;;;;11.13;2.40;;;7.60;99.90;;;6.58;100.00;97504.34;5052516;28;20417;-75
2023/01/12 09:35:03;;;;;;;11.85;2.30;;;7.60;99.90;;;6.70;100.00;97502.53;5065024;28;20439;-74
2023/01/12 09:37:29;;;;;;;12.65;2.63;;;7.70;99.90;;;6.68;100.00;97515.13;5072022;28;20396;-74
2023/01/12 09:39:55;;;;;;;11.90;2.67;;;7.70;99.90;;;6.81;100.00;97506.25;5072068;28;20430;-74
2023/01/12 09:48:08;;;;;;;11.68;2.28;;;7.90;99.90;;;6.87;100.00;97505.34;5064387;28;20609;-75
2023/01/12 09:50:38;;;;;;;12.68;2.50;;;7.90;99.90;;;7.03;100.00;97503.91;5070148;28;20414;-75
2023/01/12 09:53:11;;;;;;;8.27;2.28;;;8.00;99.90;;;7.04;100.00;97495.81;5052629;28;20793;-74
2023/01/12 09:55:54;;;;;;;14.02;2.60;;;8.00;99.90;;;6.99;100.00;97490.41;5052190;28;20402;-73
2023/01/12 09:58:35;;;;;;;15.73;2.75;;;8.00;99.90;;;7.10;100.00;97468.56;5067240;28;20496;-73
2023/01/12 10:01:10;;;;;;;10.00;2.60;;;8.00;99.90;;;7.12;100.00;97470.97;5063305;28;20399;-73
2023/01/12 10:03:40;;;;;;;8.93;2.22;;;8.10;99.90;;;7.24;100.00;97463.88;5066457;28;20474;-73
2023/01/12 10:06:13;;;;;;;13.10;2.33;;;8.10;99.90;;;7.14;100.00;97453.91;5068971;28;20372;-72
2023/01/12 10:08:44;;;;;;;11.45;2.50;;;8.20;99.90;;;7.22;100.00;97450.94;5056049;28;20398;-72
2023/01/12 10:11:18;;;;;;;11.77;2.40;;;8.20;99.90;;;7.09;100.00;97450.38;5067641;28;20421;-73
2023/01/12 10:14:08;;;;;;;16.77;2.55;;;8.10;99.90;;;7.19;100.00;97445.34;5069329;28;20951;-73
2023/01/12 10:16:50;;;;;;;15.32;2.92;;;8.20;99.90;;;7.21;100.00;97444.09;5064277;28;20408;-73
2023/01/12 10:19:26;;;;;;;12.53;2.43;;;8.20;99.90;;;7.36;100.00;97431.28;5059708;28;20397;-73
2023/01/12 10:21:53;;;;;;;10.63;2.40;;;8.30;99.90;;;7.28;100.00;97438.72;5051419;28;20754;-73
2023/01/12 10:24:21;;;;;;;7.75;2.13;;;8.30;99.90;;;7.39;100.00;97428.19;5062394;28;20795;-72
2023/01/12 10:26:59;;;;;;;12.23;2.17;;;8.30;99.90;;;7.44;100.00;97432.78;5068132;28;20412;-73
2023/01/12 10:29:25;;;;;;;7.80;2.00;;;8.40;99.90;;;7.40;100.00;97418.44;5070890;28;20865;-74
2023/01/12 10:31:52;;;;;;;8.82;2.38;;;8.40;99.90;;;7.60;100.00;97442.59;5071368;28;20415;-73
2023/01/12 10:34:18;;;;;;;9.18;2.10;;;8.40;99.90;;;7.65;100.00;97434.03;5071292;28;20399;-73
2023/01/12 10:36:48;;;;;;;12.07;2.30;;;8.60;99.90;;;7.61;100.00;97433.66;5071208;28;20904;-74
2023/01/12 10:39:30;;;;;;;7.63;2.20;;;8.60;99.90;;;7.61;100.00;97431.03;5071075;28;20457;-74
2023/01/12 10:45:14;;;;;;;9.35;2.05;;;8.60;99.90;;;7.53;100.00;97446.38;5071091;28;20395;-75
2023/01/12 10:47:43;;;;;;;10.45;2.63;;;8.50;99.90;;;7.55;100.00;97442.50;5069832;28;20408;-74
2023/01/12 10:50:26;;;;;;;9.50;2.70;;;8.50;99.90;;;7.58;100.00;97449.16;5069618;28;20396;-74
2023/01/12 10:52:59;;;;;;;8.52;2.35;;;8.60;99.90;;;7.52;100.00;97442.94;5070738;28;20415;-74
2023/01/12 10:55:31;;;;;;;7.70;2.17;;;8.50;99.90;;;7.60;100.00;97439.16;5071054;28;20966;-75
2023/01/12 10:57:57;;;;;;;10.43;2.47;;;8.60;99.90;;;7.63;100.00;97439.50;5070957;28;20396;-75
2023/01/12 11:00:27;;;;;;;8.52;2.30;;;8.60;99.90;;;7.61;100.00;97431.03;5070049;28;21202;-74
2023/01/12 11:02:55;;;;;;;8.33;2.00;;;8.60;99.90;;;7.74;100.00;97412.34;5070795;28;20396;-75
2023/01/12 11:05:36;;;;;;;7.28;1.95;;;8.70;99.90;;;7.71;100.00;97418.09;5070885;28;20793;-75
2023/01/12 11:08:17;;;;;;;8.13;1.70;;;8.70;99.90;;;7.80;100.00;97402.72;5070583;28;20430;-73
2023/01/12 11:10:43;;;;;;;8.50;1.90;;;8.80;99.90;;;7.66;100.00;97411.91;5070558;28;20419;-73